Time;durP1;ratioP1;P1;durP2;ratioP2;P2;SDS_P1;SDS_P2;PMS_P1;PMS_P2;Temp;Humidity;BMP_temperature;BMP_pressure;BME280_temperature;BME280_humidity;BME280_pressure;Samples;Min_cycle;Max_cycle;Signal;HPM_P1;HPM_P2
2022/06/28 00:00:34;;;;;;;4.95;1.30;;;14.80;99.90;;;;;;4948645;29;20032;-88
2022/06/28 00:03:00;;;;;;;9.82;1.45;;;14.80;99.90;;;;;;4948649;29;20028;-88
2022/06/28 00:05:25;;;;;;;5.75;1.30;;;14.80;99.90;;;;;;4933444;29;20476;-89
2022/06/28 00:07:51;;;;;;;4.45;1.40;;;14.80;99.90;;;;;;4933861;29;20016;-87
2022/06/28 00:10:17;;;;;;;4.65;1.40;;;14.70;99.90;;;;;;4934462;29;20112;-87
2022/06/28 00:12:43;;;;;;;4.63;1.05;;;14.60;99.90;;;;;;4933547;29;20035;-87
2022/06/28 00:17:56;;;;;;;8.93;1.48;;;14.60;99.90;;;;;;4932675;29;20108;-89
2022/06/28 00:20:22;;;;;;;3.83;1.20;;;14.50;99.90;;;;;;4933535;29;20519;-88
2022/06/28 00:22:48;;;;;;;5.60;1.33;;;14.50;99.90;;;;;;4949009;29;20444;-87
2022/06/28 00:25:14;;;;;;;8.30;1.05;;;14.40;99.90;;;;;;4933203;29;20087;-87
2022/06/28 00:27:40;;;;;;;7.80;1.50;;;14.40;99.90;;;;;;4933510;29;20031;-88
2022/06/28 00:30:07;;;;;;;3.97;1.00;;;14.40;99.90;;;;;;4933126;29;20023;-88
2022/06/28 00:32:32;;;;;;;4.47;1.35;;;14.40;99.90;;;;;;4932110;29;20094;-88
2022/06/28 00:34:59;;;;;;;5.13;1.27;;;14.30;99.90;;;;;;4933412;29;20472;-89
2022/06/28 00:37:25;;;;;;;7.25;1.42;;;14.30;99.90;;;;;;4933201;29;20047;-88
2022/06/28 00:39:52;;;;;;;5.38;1.25;;;14.20;99.90;;;;;;4933968;29;20388;-86
2022/06/28 00:42:18;;;;;;;7.45;1.20;;;14.20;99.90;;;;;;4933752;29;20035;-87
2022/06/28 00:44:44;;;;;;;3.35;1.05;;;14.20;99.90;;;;;;4933197;29;20043;-88
2022/06/28 00:47:09;;;;;;;5.60;1.63;;;14.20;99.90;;;;;;4947651;29;20024;-87
2022/06/28 00:49:42;;;;;;;4.45;1.45;;;14.20;99.90;;;;;;4933021;29;20031;-87
2022/06/28 00:52:09;;;;;;;5.40;1.27;;;14.10;99.90;;;;;;4932943;29;20039;-87
2022/06/28 00:54:35;;;;;;;5.40;1.25;;;14.10;99.90;;;;;;4947588;29;20027;-87
2022/06/28 00:57:01;;;;;;;3.67;1.40;;;14.10;99.90;;;;;;4947373;29;20027;-87
2022/06/28 00:59:28;;;;;;;4.85;1.30;;;14.10;99.90;;;;;;4932543;29;20031;-87
2022/06/28 01:01:55;;;;;;;8.65;1.67;;;14.10;99.90;;;;;;4932866;29;20038;-87
2022/06/28 01:04:21;;;;;;;3.97;1.52;;;14.00;99.90;;;;;;4947907;29;20407;-87
2022/06/28 01:06:46;;;;;;;10.98;1.48;;;14.00;99.90;;;;;;4947221;29;20488;-86
2022/06/28 01:09:12;;;;;;;5.88;1.48;;;13.90;99.90;;;;;;4932105;29;20627;-86
2022/06/28 01:11:38;;;;;;;9.38;2.10;;;14.00;99.90;;;;;;4932225;29;20122;-87
2022/06/28 01:14:07;;;;;;;6.03;1.60;;;13.90;99.90;;;;;;4932248;29;20407;-87
2022/06/28 01:16:33;;;;;;;6.43;1.90;;;13.90;99.90;;;;;;4931270;29;20539;-87
2022/06/28 01:18:59;;;;;;;3.38;1.48;;;13.90;99.90;;;;;;4947567;29;20034;-87
2022/06/28 01:21:30;;;;;;;4.22;1.60;;;13.90;99.90;;;;;;4947047;29;20118;-87
2022/06/28 01:23:56;;;;;;;6.50;1.65;;;13.90;99.90;;;;;;4932426;29;20139;-87
2022/06/28 01:26:23;;;;;;;6.88;1.70;;;13.90;99.90;;;;;;4947747;29;20023;-86
2022/06/28 01:28:50;;;;;;;6.18;1.73;;;13.90;99.90;;;;;;4932831;29;20111;-87
2022/06/28 01:31:21;;;;;;;6.78;1.77;;;13.90;99.90;;;;;;4946891;29;20027;-87
2022/06/28 01:33:48;;;;;;;6.20;1.73;;;13.80;99.90;;;;;;4932299;29;20046;-87
2022/06/28 01:36:14;;;;;;;5.55;1.77;;;13.80;99.90;;;;;;4930881;29;20035;-88
2022/06/28 01:38:41;;;;;;;6.93;1.98;;;13.80;99.90;;;;;;4932302;29;20031;-87
2022/06/28 01:41:08;;;;;;;10.40;2.38;;;13.80;99.90;;;;;;4946674;29;20123;-86
2022/06/28 01:43:36;;;;;;;8.82;1.90;;;13.80;99.90;;;;;;4932157;29;20495;-88
2022/06/28 01:46:04;;;;;;;8.82;2.05;;;13.70;99.90;;;;;;4932958;29;20518;-88
2022/06/28 01:48:32;;;;;;;7.38;1.80;;;13.70;99.90;;;;;;4930889;29;20035;-87
2022/06/28 01:50:57;;;;;;;9.60;2.10;;;13.70;99.90;;;;;;4932167;29;20039;-87
2022/06/28 01:53:23;;;;;;;7.82;1.80;;;13.70;99.90;;;;;;4931325;29;20036;-88
2022/06/28 01:55:49;;;;;;;9.45;1.98;;;13.60;99.90;;;;;;4932092;29;20027;-87
2022/06/28 01:58:15;;;;;;;15.07;2.38;;;13.60;99.90;;;;;;4931786;29;20027;-89
2022/06/28 02:00:40;;;;;;;11.30;2.42;;;13.60;99.90;;;;;;4931895;29;20083;-86
2022/06/28 02:03:07;;;;;;;10.27;1.73;;;13.60;99.90;;;;;;4931386;29;20034;-85
2022/06/28 02:05:32;;;;;;;9.15;2.05;;;13.60;99.90;;;;;;4930433;29;20043;-87
2022/06/28 02:07:58;;;;;;;6.95;2.08;;;13.60;99.90;;;;;;4932054;29;20023;-86
2022/06/28 02:10:25;;;;;;;14.20;2.45;;;13.60;99.90;;;;;;4935124;29;20036;-88
2022/06/28 02:12:51;;;;;;;8.65;2.17;;;13.60;99.90;;;;;;4952749;29;20114;-85
2022/06/28 02:15:16;;;;;;;10.73;2.17;;;13.60;99.90;;;;;;4966612;29;20023;-85
2022/06/28 02:17:43;;;;;;;8.38;2.28;;;13.60;99.90;;;;;;4950612;28;20378;-88
2022/06/28 02:20:10;;;;;;;15.15;2.33;;;13.50;99.90;;;;;;4933360;29;20035;-86
2022/06/28 02:22:35;;;;;;;7.88;1.85;;;13.50;99.90;;;;;;4932134;29;20047;-86
2022/06/28 02:25:01;;;;;;;7.15;1.73;;;13.50;99.90;;;;;;4931755;29;20188;-88
2022/06/28 02:27:27;;;;;;;15.43;2.00;;;13.50;99.90;;;;;;4931613;29;20024;-88
2022/06/28 02:29:52;;;;;;;5.38;1.90;;;13.40;99.90;;;;;;4947309;29;20142;-88
2022/06/28 02:32:18;;;;;;;10.35;2.20;;;13.40;99.90;;;;;;4946086;29;20499;-87
2022/06/28 02:40:21;;;;;;;12.60;2.00;;;13.30;99.90;;;;;;4932100;29;20039;-87
2022/06/28 02:42:54;;;;;;;7.90;1.95;;;13.40;99.90;;;;;;4935611;29;20055;-86
2022/06/28 02:45:21;;;;;;;8.63;2.05;;;13.40;99.90;;;;;;4949732;29;20071;-87
2022/06/28 02:47:47;;;;;;;9.52;2.30;;;13.40;99.90;;;;;;4950033;29;20479;-86
2022/06/28 02:50:13;;;;;;;5.32;1.85;;;13.30;99.90;;;;;;4934995;29;20024;-90
2022/06/28 02:52:39;;;;;;;7.13;2.10;;;13.40;99.90;;;;;;4950306;29;20032;-89
2022/06/28 02:55:06;;;;;;;7.78;2.08;;;13.30;99.90;;;;;;4935367;29;20060;-89
2022/06/28 02:57:33;;;;;;;10.40;2.10;;;13.40;99.90;;;;;;4935126;29;20028;-87
2022/06/28 02:59:59;;;;;;;9.38;2.25;;;13.30;99.90;;;;;;4933756;29;20389;-88
2022/06/28 03:02:25;;;;;;;7.22;2.10;;;13.30;99.90;;;;;;4935518;29;20034;-87
2022/06/28 03:04:51;;;;;;;8.90;2.03;;;13.30;99.90;;;;;;4950153;29;20412;-90
2022/06/28 03:07:17;;;;;;;8.82;2.00;;;13.30;99.90;;;;;;4949779;29;20042;-87
2022/06/28 03:09:43;;;;;;;5.45;2.10;;;13.30;99.90;;;;;;4935011;29;20106;-88
2022/06/28 03:12:09;;;;;;;6.47;2.10;;;13.30;99.90;;;;;;4934786;29;20067;-89
2022/06/28 03:14:35;;;;;;;7.75;2.13;;;13.30;99.90;;;;;;4935150;29;20051;-90
2022/06/28 03:17:01;;;;;;;11.75;2.13;;;13.20;99.90;;;;;;4949895;29;20115;-89
2022/06/28 03:19:27;;;;;;;8.68;1.95;;;13.20;99.90;;;;;;4934309;29;20063;-88
2022/06/28 03:21:53;;;;;;;6.10;1.75;;;13.10;99.90;;;;;;4950312;29;20053;-88
2022/06/28 03:24:18;;;;;;;9.48;2.10;;;13.10;99.90;;;;;;4934175;29;20031;-87
2022/06/28 03:26:44;;;;;;;9.98;2.30;;;13.10;99.90;;;;;;4934589;29;20023;-87
2022/06/28 03:29:10;;;;;;;6.05;1.90;;;13.10;99.90;;;;;;4934428;29;20051;-88
2022/06/28 03:31:36;;;;;;;8.75;1.80;;;13.10;99.90;;;;;;4949552;29;20428;-88
2022/06/28 03:34:02;;;;;;;7.63;1.60;;;13.10;99.90;;;;;;4949254;29;20376;-88
2022/06/28 03:36:28;;;;;;;6.50;1.60;;;13.10;99.90;;;;;;4934768;29;20031;-88
2022/06/28 03:38:54;;;;;;;8.82;2.25;;;13.10;99.90;;;;;;4950211;29;20042;-88
2022/06/28 03:41:22;;;;;;;7.15;2.00;;;13.00;99.90;;;;;;4934177;29;20024;-89
2022/06/28 03:43:52;;;;;;;7.68;2.17;;;13.00;99.90;;;;;;4934225;29;20411;-85
2022/06/28 03:46:18;;;;;;;6.20;2.60;;;13.00;99.90;;;;;;4933744;29;20448;-85
2022/06/28 03:48:45;;;;;;;7.90;1.92;;;13.00;99.90;;;;;;4933943;29;20087;-87
2022/06/28 03:51:10;;;;;;;9.18;2.30;;;13.00;99.90;;;;;;4933820;29;20066;-93
2022/06/28 03:53:36;;;;;;;6.57;1.92;;;13.00;99.90;;;;;;4948645;29;20070;-91
2022/06/28 03:56:02;;;;;;;5.07;1.98;;;13.00;99.90;;;;;;4949183;29;20028;-89
2022/06/28 03:58:29;;;;;;;6.68;2.17;;;13.00;99.90;;;;;;4949392;29;20515;-84
2022/06/28 04:00:54;;;;;;;6.55;2.05;;;12.90;99.90;;;;;;4934694;29;20036;-86
2022/06/28 04:03:20;;;;;;;5.30;2.08;;;12.90;99.90;;;;;;4933978;29;20107;-89
2022/06/28 04:05:46;;;;;;;6.57;1.95;;;12.90;99.90;;;;;;4948766;29;20027;-87
2022/06/28 04:08:11;;;;;;;3.85;1.85;;;12.90;99.90;;;;;;4948526;29;20031;-90
2022/06/28 04:10:38;;;;;;;5.05;1.92;;;12.90;99.90;;;;;;4933884;29;20019;-89
2022/06/28 04:13:03;;;;;;;6.80;2.20;;;12.90;99.90;;;;;;4933101;29;20035;-89
2022/06/28 04:15:30;;;;;;;5.40;1.92;;;12.80;99.90;;;;;;4933820;29;20032;-85
2022/06/28 04:17:55;;;;;;;8.15;2.20;;;12.80;99.90;;;;;;4934408;29;20038;-89
2022/06/28 04:20:21;;;;;;;6.22;1.80;;;12.80;99.90;;;;;;4933258;29;20024;-87
2022/06/28 04:22:47;;;;;;;6.13;1.90;;;12.80;99.90;;;;;;4948410;29;20030;-87
2022/06/28 04:25:12;;;;;;;5.47;2.00;;;12.80;99.90;;;;;;4933318;29;20035;-88
2022/06/28 04:27:38;;;;;;;7.07;2.17;;;12.80;99.90;;;;;;4948256;29;20079;-91
2022/06/28 04:30:04;;;;;;;6.40;2.13;;;12.80;99.90;;;;;;4947967;29;20039;-85
2022/06/28 04:32:30;;;;;;;7.53;2.35;;;12.80;99.90;;;;;;4934025;29;20028;-86
2022/06/28 04:34:57;;;;;;;8.85;2.40;;;12.80;99.90;;;;;;4934237;29;20091;-85
2022/06/28 04:37:23;;;;;;;8.25;1.98;;;12.80;99.90;;;;;;4947971;29;20042;-85
2022/06/28 04:39:48;;;;;;;5.78;2.78;;;12.80;99.90;;;;;;4933297;29;20032;-87
2022/06/28 04:42:14;;;;;;;10.52;2.33;;;12.80;99.90;;;;;;4932971;29;20028;-86
2022/06/28 04:44:41;;;;;;;6.90;2.63;;;12.80;99.90;;;;;;4933034;29;20016;-86
2022/06/28 04:47:08;;;;;;;8.15;2.30;;;12.80;99.90;;;;;;4933283;29;20028;-86
2022/06/28 04:49:34;;;;;;;7.00;2.50;;;12.80;99.90;;;;;;4946706;29;20102;-85
2022/06/28 04:52:00;;;;;;;8.95;2.33;;;12.80;99.90;;;;;;4944711;29;20032;-85
2022/06/28 04:54:27;;;;;;;8.25;2.40;;;12.80;99.90;;;;;;4948251;29;20027;-85
2022/06/28 04:56:52;;;;;;;10.80;3.20;;;12.80;99.90;;;;;;4943869;29;20032;-84
2022/06/28 04:59:18;;;;;;;9.32;2.50;;;12.80;99.90;;;;;;4933454;29;20036;-89
2022/06/28 05:01:44;;;;;;;7.32;2.17;;;12.80;99.90;;;;;;4933181;29;20043;-88
2022/06/28 05:04:09;;;;;;;9.20;2.40;;;12.90;99.90;;;;;;4932167;29;20059;-89
2022/06/28 05:06:35;;;;;;;10.15;2.90;;;12.90;99.90;;;;;;4932860;29;20059;-87
2022/06/28 05:09:01;;;;;;;9.25;2.75;;;12.90;99.90;;;;;;4947827;29;20032;-84
2022/06/28 05:11:28;;;;;;;5.28;2.22;;;12.90;99.90;;;;;;4932915;29;20026;-86
2022/06/28 05:13:55;;;;;;;12.05;2.88;;;12.90;99.90;;;;;;4947177;29;20131;-87
2022/06/28 05:16:20;;;;;;;10.05;2.38;;;12.90;99.90;;;;;;4931181;29;20034;-87
2022/06/28 05:18:46;;;;;;;7.95;2.40;;;13.00;99.90;;;;;;4932532;29;20114;-89
2022/06/28 05:21:12;;;;;;;6.07;2.22;;;13.00;99.90;;;;;;4932274;29;20050;-86
2022/06/28 05:23:38;;;;;;;9.50;2.47;;;13.00;99.90;;;;;;4947164;29;20024;-87
2022/06/28 05:26:04;;;;;;;7.57;2.45;;;13.00;99.90;;;;;;4932011;29;20400;-85
2022/06/28 05:28:29;;;;;;;6.63;2.60;;;13.10;99.90;;;;;;4947586;29;20038;-85
2022/06/28 05:30:55;;;;;;;11.02;2.55;;;;;;;;;;4947996;29;20123;-87
2022/06/28 05:33:22;;;;;;;7.68;3.42;;;;;;;;;;4948152;29;20027;-95
2022/06/28 05:35:48;;;;;;;13.60;2.92;;;;;;;;;;4934002;29;20039;-84
2022/06/28 05:38:14;;;;;;;7.82;2.25;;;;;;;;;;4933249;29;20110;-94
2022/06/28 05:40:40;;;;;;;10.80;2.50;;;;;;;;;;4934263;29;20028;-85
2022/06/28 05:43:06;;;;;;;9.00;2.92;;;;;;;;;;4932763;29;20038;-87
2022/06/28 05:45:32;;;;;;;6.85;2.45;;;;;;;;;;4933829;29;20100;-87
2022/06/28 05:47:58;;;;;;;7.35;2.35;;;;;;;;;;4934137;29;20063;-91
2022/06/28 05:50:24;;;;;;;6.53;2.42;;;;;;;;;;4947289;29;20059;-92
2022/06/28 05:52:52;;;;;;;15.45;2.70;;;;;;;;;;4932379;29;20040;-92
2022/06/28 05:55:18;;;;;;;10.40;2.80;;;;;;;;;;4946678;29;20066;-85
2022/06/28 05:57:44;;;;;;;13.80;2.72;;;;;;;;;;4946794;29;20028;-90
2022/06/28 06:00:11;;;;;;;12.52;2.42;;;;;;;;;;4931376;29;20484;-84
2022/06/28 06:02:37;;;;;;;12.80;2.25;;;;;;;;;;4932015;29;20024;-95
2022/06/28 06:05:04;;;;;;;10.70;2.72;;;;;;;;;;4931866;29;20027;-83
2022/06/28 06:07:30;;;;;;;11.38;3.65;;;;;;;;;;4932854;29;20027;-92
2022/06/28 06:09:57;;;;;;;11.75;3.00;;;;;;;;;;4931758;29;20059;-93
2022/06/28 06:12:23;;;;;;;14.52;3.10;;;;;;;;;;4931951;29;20043;-95
2022/06/28 06:14:49;;;;;;;11.70;2.85;;;;;;;;;;4931085;29;20036;-91
2022/06/28 06:17:15;;;;;;;15.63;2.65;;;;;;;;;;4931612;29;20038;-87
2022/06/28 06:19:41;;;;;;;8.43;2.50;;;;;;;;;;4931850;29;20028;-90
2022/06/28 06:22:07;;;;;;;7.35;2.63;;;;;;;;;;4931888;29;20016;-91
2022/06/28 06:24:33;;;;;;;15.23;2.92;;;;;;;;;;4932618;29;20034;-82
2022/06/28 06:26:59;;;;;;;16.88;3.00;;;;;;;;;;4933247;29;20020;-83
2022/06/28 06:29:26;;;;;;;15.05;2.72;;;;;;;;;;4931168;29;20087;-83
2022/06/28 06:31:52;;;;;;;17.45;4.03;;;;;;;;;;4933051;29;20448;-96
2022/06/28 06:34:18;;;;;;;10.10;2.67;;;;;;;;;;4932582;29;20043;-91
2022/06/28 06:36:47;;;;;;;10.02;2.58;;;;;;;;;;4928648;28;20032;-83
2022/06/28 06:39:14;;;;;;;9.85;2.50;;;;;;;;;;4948063;28;20027;-85
2022/06/28 06:41:40;;;;;;;12.80;2.80;;;;;;;;;;4955562;28;20030;-84
2022/06/28 06:44:06;;;;;;;10.45;2.72;;;;;;;;;;4949632;28;20115;-84
2022/06/28 06:46:33;;;;;;;10.40;2.90;;;;;;;;;;4950666;28;20117;-84
2022/06/28 06:48:59;;;;;;;8.63;2.47;;;;;;;;;;4965494;28;20106;-92
2022/06/28 06:51:25;;;;;;;10.55;2.97;;;;;;;;;;4949355;28;20039;-87
2022/06/28 06:53:52;;;;;;;10.32;2.65;;;;;;;;;;4964373;28;20029;-90
2022/06/28 06:56:18;;;;;;;9.02;2.47;;;;;;;;;;4950045;29;20050;-82
2022/06/28 06:58:44;;;;;;;11.15;2.95;;;;;;;;;;4965261;28;20078;-84
2022/06/28 07:01:10;;;;;;;14.40;2.50;;;;;;;;;;4950421;29;20030;-82
2022/06/28 07:03:40;;;;;;;10.10;2.45;;;;;;;;;;4950466;29;20027;-86
2022/06/28 07:06:06;;;;;;;11.13;2.88;;;;;;;;;;4964870;28;20078;-85
2022/06/28 07:08:32;;;;;;;14.80;2.63;;;;;;;;;;4951130;29;20023;-82
2022/06/28 07:10:58;;;;;;;7.20;2.22;;;;;;;;;;4950728;29;20023;-87
2022/06/28 07:13:24;;;;;;;10.73;2.85;;;;;;;;;;4949847;29;20054;-88
2022/06/28 07:15:51;;;;;;;10.00;2.45;;;;;;;;;;4950364;29;20118;-84
2022/06/28 07:18:17;;;;;;;7.13;2.25;;;;;;;;;;4950192;28;20042;-86
2022/06/28 07:20:43;;;;;;;21.45;2.80;;;;;;;;;;4964881;28;20038;-90
2022/06/28 07:23:09;;;;;;;10.38;1.85;;;;;;;;;;4949965;29;20028;-85
2022/06/28 07:25:35;;;;;;;12.85;2.20;;;;;;;;;;4951222;28;20058;-86
2022/06/28 07:28:02;;;;;;;11.23;2.20;;;;;;;;;;4978470;28;20161;-82
2022/06/28 07:30:28;;;;;;;13.15;2.42;;;;;;;;;;4957800;28;20028;-82
2022/06/28 07:32:54;;;;;;;8.07;2.08;;;;;;;;;;4950512;29;20046;-82
2022/06/28 07:35:24;;;;;;;10.35;2.30;;;;;;;;;;4941170;29;20027;-84
2022/06/28 07:37:50;;;;;;;14.80;2.10;;;;;;;;;;4955892;28;20082;-86
2022/06/28 07:40:16;;;;;;;11.20;1.80;;;;;;;;;;4936629;29;20039;-89
2022/06/28 07:42:42;;;;;;;11.38;1.92;;;;;;;;;;4938096;29;20032;-90
2022/06/28 07:45:09;;;;;;;6.40;1.70;;;;;;;;;;4953234;28;20054;-84
2022/06/28 07:47:35;;;;;;;15.13;1.77;;;;;;;;;;4953035;28;20031;-82
2022/06/28 07:52:46;;;;;;;10.15;2.55;;;;;;;;;;4943920;29;20556;-92
2022/06/28 07:55:12;;;;;;;19.88;2.95;;;;;;;;;;4941722;29;20040;-86
2022/06/28 07:57:38;;;;;;;14.13;2.53;;;;;;;;;;4944896;29;20019;-85
2022/06/28 08:00:07;;;;;;;7.03;1.50;;;;;;;;;;4943520;29;20063;-86
2022/06/28 08:02:33;;;;;;;9.18;1.63;;;;;;;;;;4943602;29;20019;-83
2022/06/28 08:04:59;;;;;;;14.68;2.25;;;;;;;;;;4959332;28;20027;-84
2022/06/28 08:07:25;;;;;;;10.27;2.25;;;;;;;;;;4941920;29;20039;-92
2022/06/28 08:09:51;;;;;;;13.80;2.13;;;;;;;;;;4943122;29;20031;-92
2022/06/28 08:12:17;;;;;;;9.57;2.08;;;;;;;;;;4941762;29;20095;-90
2022/06/28 08:14:43;;;;;;;8.40;2.03;;;;;;;;;;4942518;29;20043;-91
2022/06/28 08:17:09;;;;;;;10.70;2.28;;;;;;;;;;4943115;29;20373;-91
2022/06/28 08:19:36;;;;;;;6.93;1.92;;;;;;;;;;4941582;29;20028;-93
2022/06/28 08:22:02;;;;;;;11.48;2.10;;;;;;;;;;4945551;28;20055;-88
2022/06/28 08:24:28;;;;;;;9.43;1.85;;;;;;;;;;4943329;29;20047;-91
2022/06/28 08:26:54;;;;;;;7.65;1.70;;;;;;;;;;4941995;28;20027;-87
2022/06/28 08:29:23;;;;;;;19.73;2.22;;;;;;;;;;4948648;29;20035;-91
2022/06/28 08:31:49;;;;;;;9.70;2.22;;;;;;;;;;4945630;29;20487;-93
2022/06/28 08:34:15;;;;;;;11.00;2.00;;;;;;;;;;4952913;29;20039;-85
2022/06/28 08:36:41;;;;;;;10.68;1.90;;;;;;;;;;4953218;29;20027;-91
2022/06/28 08:39:08;;;;;;;7.93;1.80;;;;;;;;;;4967605;28;20031;-84
2022/06/28 08:41:34;;;;;;;11.23;1.90;;;;;;;;;;4953304;29;20023;-92
2022/06/28 08:44:01;;;;;;;11.52;2.08;;;;;;;;;;4969311;28;20038;-90
2022/06/28 08:46:27;;;;;;;9.77;1.92;;;;;;;;;;4951364;28;20404;-90
2022/06/28 08:48:56;;;;;;;9.43;2.13;;;;;;;;;;4934102;29;20542;-93
2022/06/28 08:51:30;;;;;;;10.85;1.85;;;;;;;;;;4949149;29;20028;-91
2022/06/28 08:53:56;;;;;;;14.70;2.50;;;;;;;;;;4934094;29;20069;-85
2022/06/28 08:56:22;;;;;;;12.48;1.83;;;;;;;;;;4933239;29;20094;-85
2022/06/28 08:58:48;;;;;;;10.48;2.60;;;;;;;;;;4948281;29;20024;-89
2022/06/28 09:01:14;;;;;;;8.65;2.25;;;;;;;;;;4948629;29;20090;-92
2022/06/28 09:03:40;;;;;;;7.60;1.95;;;;;;;;;;4948802;29;20428;-92
2022/06/28 09:06:06;;;;;;;10.75;2.22;;;;;;;;;;4934033;29;20028;-85
2022/06/28 09:08:33;;;;;;;11.10;2.17;;;;;;;;;;4934773;29;20155;-95
2022/06/28 09:10:59;;;;;;;14.40;2.28;;;;;;;;;;4935215;29;20035;-93
2022/06/28 09:13:25;;;;;;;9.52;1.88;;;;;;;;;;4933551;29;20039;-92
2022/06/28 09:15:56;;;;;;;22.05;3.03;;;;;;;;;;4948350;28;20090;-92
2022/06/28 09:18:42;;;;;;;31.95;3.25;;;;;;;;;;4948881;29;20052;-93
2022/06/28 09:21:10;;;;;;;11.93;2.53;;;;;;;;;;4933588;29;20407;-91
2022/06/28 09:23:38;;;;;;;8.27;2.03;;;;;;;;;;4949472;29;20064;-84
2022/06/28 09:26:06;;;;;;;16.67;2.65;;;;;;;;;;4935658;29;20027;-93
2022/06/28 09:28:33;;;;;;;14.80;2.40;;;;;;;;;;4934408;29;20111;-90
2022/06/28 09:31:14;;;;;;;10.57;2.10;;;;;;;;;;4948112;29;20148;-94
2022/06/28 09:33:40;;;;;;;13.82;2.45;;;;;;;;;;4933292;29;20051;-88
2022/06/28 09:36:06;;;;;;;32.75;3.75;;;;;;;;;;4948799;29;20039;-88
2022/06/28 09:38:33;;;;;;;11.05;2.15;;;;;;;;;;4937271;29;20023;-89
2022/06/28 09:41:00;;;;;;;17.13;2.25;;;;;;;;;;4940862;29;20174;-86
2022/06/28 09:43:33;;;;;;;21.67;2.72;;;;;;;;;;4954222;28;20035;-92
2022/06/28 09:46:03;;;;;;;26.90;2.85;;;;;;;;;;4941573;29;20539;-92
2022/06/28 09:48:32;;;;;;;9.85;2.40;;;;;;;;;;4955348;28;20023;-93
2022/06/28 09:50:59;;;;;;;29.35;3.78;;;;;;;;;;4940873;29;20499;-92
2022/06/28 09:53:27;;;;;;;21.38;3.20;;;;;;;;;;4941212;29;20163;-94
2022/06/28 09:55:53;;;;;;;23.40;2.60;;;;;;;;;;4956722;28;20043;-93
2022/06/28 09:58:20;;;;;;;22.85;2.80;;;;;;;;;;4949373;29;20051;-91
2022/06/28 10:00:46;;;;;;;19.02;3.50;;;;;;;;;;4967773;28;20495;-90
2022/06/28 10:03:12;;;;;;;17.33;2.65;;;;;;;;;;4968932;28;20554;-92
2022/06/28 10:05:39;;;;;;;11.85;2.05;;;;;;;;;;4980656;28;20031;-85
2022/06/28 10:08:06;;;;;;;6.32;1.77;;;;;;;;;;4982727;28;20023;-87
2022/06/28 10:10:33;;;;;;;12.68;1.98;;;;;;;;;;4967765;29;20028;-89
2022/06/28 10:16:05;;;;;;;10.57;2.13;;;;;;;;;;4953107;29;20046;-91
2022/06/28 10:18:31;;;;;;;9.87;1.90;;;;;;;;;;4951730;29;20069;-91
2022/06/28 10:20:57;;;;;;;18.65;2.30;;;;;;;;;;4951719;29;20035;-89
2022/06/28 10:23:28;;;;;;;43.17;4.40;;;;;;;;;;4968353;28;20034;-94
2022/06/28 10:26:21;;;;;;;22.25;2.85;;;;;;;;;;4970699;28;20027;-94
2022/06/28 10:29:02;;;;;;;16.13;2.75;;;;;;;;;;4939048;29;20085;-93
2022/06/28 10:31:29;;;;;;;10.52;2.00;;;;;;;;;;4948268;29;20032;-88
2022/06/28 10:33:56;;;;;;;9.25;2.20;;;;;;;;;;4966648;28;20023;-93
2022/06/28 10:36:23;;;;;;;9.73;2.20;;;;;;;;;;4951937;29;20027;-94
2022/06/28 10:39:01;;;;;;;7.90;2.20;;;;;;;;;;4951744;29;20031;-94
2022/06/28 10:41:48;;;;;;;14.55;2.63;;;;;;;;;;4951155;29;20684;-87
2022/06/28 10:44:22;;;;;;;8.43;2.00;;;;;;;;;;4951898;29;20027;-94
2022/06/28 10:47:00;;;;;;;14.23;2.15;;;;;;;;;;4951724;29;20023;-96
2022/06/28 10:49:26;;;;;;;;;;;;;;;;;;4951934;29;20031;-93
2022/06/28 10:52:08;;;;;;;7.55;1.80;;;;;;;;;;4951446;29;19906;-88
2022/06/28 10:54:34;;;;;;;10.02;2.15;;;;;;;;;;4952552;28;20114;-93
2022/06/28 10:57:00;;;;;;;9.77;2.60;;;;;;;;;;4949241;29;20483;-88
2022/06/28 10:59:36;;;;;;;11.07;2.20;;;;;;;;;;4939715;29;20056;-93
2022/06/28 11:02:02;;;;;;;11.18;2.25;;;;;;;;;;4937295;28;20035;-91
2022/06/28 11:04:30;;;;;;;11.65;2.10;;;;;;;;;;4936029;29;20772;-94
2022/06/28 11:06:59;;;;;;;8.60;1.83;;;;;;;;;;4935966;29;20044;-89
2022/06/28 11:09:25;;;;;;;12.60;1.95;;;;;;;;;;4935707;29;20024;-90
2022/06/28 11:12:06;;;;;;;12.10;2.40;;;;;;;;;;4935186;29;20046;-92
2022/06/28 11:14:36;;;;;;;8.45;1.92;;;;;;;;;;4936693;29;20381;-91
2022/06/28 11:17:02;;;;;;;7.47;1.70;;;;;;;;;;4944878;29;20047;-91
2022/06/28 11:19:28;;;;;;;10.43;1.65;;;;;;;;;;4943129;29;20024;-91
2022/06/28 11:21:55;;;;;;;10.18;1.75;;;;;;;;;;4943773;29;20042;-88
2022/06/28 11:24:22;;;;;;;8.73;1.80;;;;;;;;;;4944891;29;20526;-87
2022/06/28 11:29:32;;;;;;;8.10;1.92;;;;;;;;;;4944655;29;20154;-94
2022/06/28 11:31:58;;;;;;;8.15;1.80;;;;;;;;;;4959097;28;20059;-92
2022/06/28 11:34:27;;;;;;;8.55;2.10;;;;;;;;;;4942366;29;20042;-92
2022/06/28 11:36:56;;;;;;;11.70;2.25;;;;;;;;;;4958159;28;20362;-90
2022/06/28 11:39:23;;;;;;;9.63;2.15;;;;;;;;;;4944283;29;20034;-89
2022/06/28 11:41:51;;;;;;;6.80;2.15;;;;;;;;;;4942145;29;20111;-87
2022/06/28 11:44:17;;;;;;;5.30;1.60;;;;;;;;;;4957832;28;20031;-90
2022/06/28 11:46:44;;;;;;;6.10;1.58;;;;;;;;;;4959206;28;20023;-92
2022/06/28 11:49:10;;;;;;;10.23;1.80;;;;;;;;;;4957807;28;20110;-92
2022/06/28 11:51:40;;;;;;;7.80;2.08;;;;;;;;;;4939031;29;20111;-93
2022/06/28 11:54:07;;;;;;;9.63;1.90;;;;;;;;;;4936072;29;20079;-92
2022/06/28 11:56:43;;;;;;;10.18;1.70;;;;;;;;;;4934508;29;20035;-93
2022/06/28 11:59:09;;;;;;;7.43;1.80;;;;;;;;;;4935424;29;20024;-86
2022/06/28 12:01:39;;;;;;;10.98;1.98;;;;;;;;;;4935158;29;20054;-87
2022/06/28 12:04:08;;;;;;;11.60;2.00;;;;;;;;;;4949898;29;20511;-95
2022/06/28 12:06:35;;;;;;;13.68;2.70;;;;;;;;;;4938936;29;20031;-86
2022/06/28 12:09:02;;;;;;;9.48;1.98;;;;;;;;;;4943399;29;20041;-91
2022/06/28 12:11:28;;;;;;;14.77;1.97;;;;;;;;;;4957865;28;20038;-91
2022/06/28 12:13:55;;;;;;;6.80;1.65;;;;;;;;;;4956695;28;20104;-92
2022/06/28 12:16:21;;;;;;;21.47;2.60;;;;;;;;;;4943035;28;20050;-85
2022/06/28 12:18:51;;;;;;;6.43;2.10;;;;;;;;;;4942803;29;20392;-91
2022/06/28 12:21:17;;;;;;;14.60;2.17;;;;;;;;;;4940648;29;20031;-89
2022/06/28 12:23:47;;;;;;;10.07;1.83;;;;;;;;;;4957638;28;20496;-94
2022/06/28 12:26:14;;;;;;;7.43;2.00;;;;;;;;;;4941265;29;20022;-93
2022/06/28 12:28:40;;;;;;;6.88;1.85;;;;;;;;;;4960129;28;20028;-86
2022/06/28 12:31:06;;;;;;;7.07;1.63;;;;;;;;;;4943975;29;20054;-92
2022/06/28 12:33:32;;;;;;;5.10;1.30;;;;;;;;;;4958950;28;20122;-94
2022/06/28 12:35:58;;;;;;;5.18;1.70;;;;;;;;;;4941496;29;20067;-95
2022/06/28 12:38:24;;;;;;;5.95;1.42;;;;;;;;;;4943576;29;20023;-92
2022/06/28 12:40:50;;;;;;;6.80;1.65;;;;;;;;;;4942785;29;20047;-93
2022/06/28 12:43:16;;;;;;;6.95;1.80;;;;;;;;;;4943800;29;20121;-94
2022/06/28 12:45:42;;;;;;;7.78;1.63;;;;;;;;;;4942214;29;20020;-93
2022/06/28 12:48:09;;;;;;;6.20;1.42;;;;;;;;;;4942886;29;20499;-94
2022/06/28 12:50:35;;;;;;;11.00;1.80;;;;;;;;;;4943161;29;20106;-94
2022/06/28 12:53:01;;;;;;;8.35;1.40;;;;;;;;;;4956558;28;20524;-92
2022/06/28 12:55:27;;;;;;;6.68;1.60;;;;;;;;;;4941380;28;20067;-92
2022/06/28 12:57:53;;;;;;;9.43;1.45;;;;;;;;;;4944037;28;20024;-92
2022/06/28 13:00:19;;;;;;;9.13;1.80;;;;;;;;;;4941595;28;20484;-94
2022/06/28 13:02:45;;;;;;;6.78;1.60;;;;;;;;;;4942700;28;20023;-92
2022/06/28 13:05:11;;;;;;;6.82;1.80;;;;;;;;;;4942354;29;20466;-87
2022/06/28 13:07:41;;;;;;;3.55;1.42;;;;;;;;;;4941266;28;20034;-92
2022/06/28 13:10:13;;;;;;;6.20;1.63;;;;;;;;;;4955954;28;20024;-90
2022/06/28 13:12:40;;;;;;;5.72;1.50;;;;;;;;;;4957370;28;20035;-85
2022/06/28 13:15:06;;;;;;;5.50;1.70;;;;;;;;;;4943070;29;20038;-88
2022/06/28 13:17:32;;;;;;;8.82;1.40;;;;;;;;;;4941421;29;20031;-95
2022/06/28 13:19:59;;;;;;;4.45;1.30;;;;;;;;;;4941927;29;20015;-92
2022/06/28 13:22:26;;;;;;;10.27;1.70;;;;;;;;;;4942916;29;20035;-92
2022/06/28 13:24:52;;;;;;;9.55;1.60;;;;;;;;;;4938827;29;20055;-92
2022/06/28 13:27:18;;;;;;;10.88;1.33;;;;;;;;;;4942178;29;20037;-93
2022/06/28 13:29:44;;;;;;;7.03;1.88;;;;;;;;;;4942373;29;20023;-92
2022/06/28 13:32:10;;;;;;;5.75;2.03;;;;;;;;;;4940746;29;20028;-94
2022/06/28 13:34:36;;;;;;;6.57;1.40;;;;;;;;;;4942278;29;20118;-91
2022/06/28 13:37:03;;;;;;;5.20;1.52;;;;;;;;;;4941241;29;20038;-90
2022/06/28 13:39:29;;;;;;;8.80;1.60;;;;;;;;;;4941443;28;20039;-91
2022/06/28 13:41:55;;;;;;;5.38;1.52;;;;;;;;;;4955460;28;20440;-89
2022/06/28 13:44:21;;;;;;;8.30;1.50;;;;;;;;;;4943328;29;20035;-90
2022/06/28 13:46:47;;;;;;;5.97;1.23;;;;;;;;;;4941848;29;20027;-91
2022/06/28 13:49:13;;;;;;;7.60;1.55;;;;;;;;;;4939986;29;20034;-87
2022/06/28 13:51:39;;;;;;;8.20;1.40;;;;;;;;;;4959180;28;20487;-90
2022/06/28 13:54:06;;;;;;;4.20;1.40;;;;;;;;;;4958553;28;20031;-89
2022/06/28 13:56:32;;;;;;;4.30;1.45;;;;;;;;;;4941742;28;20111;-85
2022/06/28 13:58:58;;;;;;;4.00;1.30;;;;;;;;;;4943720;28;20020;-92
2022/06/28 14:01:24;;;;;;;5.15;1.30;;;;;;;;;;4939927;29;20030;-90
2022/06/28 14:03:50;;;;;;;9.07;1.40;;;;;;;;;;4941497;29;20102;-84